Time;durP1;ratioP1;P1;durP2;ratioP2;P2;SDS_P1;SDS_P2;PMS_P1;PMS_P2;Temp;Humidity;BMP_temperature;BMP_pressure;BME280_temperature;BME280_humidity;BME280_pressure;Samples;Min_cycle;Max_cycle;Signal;HPM_P1;HPM_P2
2021/12/02 00:00:06;;;;;;;;;;;;;;;14.21;45.33;99964.41;5077416;28;19917;-88
2021/12/02 00:02:31;;;;;;;;;;;;;;;14.01;46.18;99965.94;5063144;28;19924;-88
2021/12/02 00:04:56;;;;;;;;;;;;;;;13.33;47.57;99961.91;5064193;28;19963;-89
2021/12/02 00:07:24;;;;;;;;;;;;;;;14.10;46.05;99961.63;5078577;28;19917;-89
2021/12/02 00:09:50;;;;;;;;;;;;;;;13.16;47.80;99976.72;5077416;28;19920;-88
2021/12/02 00:12:15;;;;;;;;;;;;;;;12.06;50.64;99970.78;5078046;28;20051;-87
2021/12/02 00:14:43;;;;;;;;;;;;;;;11.39;52.85;99979.69;5077779;28;19938;-86
2021/12/02 00:17:13;;;;;;;;;;;;;;;11.50;52.85;99981.69;5078336;28;19991;-85
2021/12/02 00:22:24;;;;;;;;;;;;;;;11.63;52.18;99990.78;5061554;28;20285;-87
2021/12/02 00:24:54;;;;;;;;;;;;;;;11.11;53.11;99991.44;5075997;28;20003;-87
2021/12/02 00:27:20;;;;;;;;;;;;;;;11.40;51.59;99980.56;5060630;28;20007;-87
2021/12/02 00:29:46;;;;;;;;;;;;;;;11.02;52.30;99975.78;5076238;28;19948;-87
2021/12/02 00:32:11;;;;;;;;;;;;;;;12.19;49.52;99976.25;5060333;28;19962;-87
2021/12/02 00:34:41;;;;;;;;;;;;;;;11.74;49.94;99972.94;5076567;28;20007;-87
2021/12/02 00:37:07;;;;;;;;;;;;;;;11.18;50.71;99981.97;5077020;28;19917;-87
2021/12/02 00:39:33;;;;;;;;;;;;;;;10.86;51.21;99992.13;5077191;28;19917;-88
2021/12/02 00:41:59;;;;;;;;;;;;;;;11.00;50.95;99975.88;5061453;28;19923;-87
2021/12/02 00:44:24;;;;;;;;;;;;;;;10.77;50.44;99978.19;5062474;28;19923;-88
2021/12/02 00:46:50;;;;;;;;;;;;;;;11.46;49.85;99977.47;5062963;28;19916;-87
2021/12/02 00:49:17;;;;;;;;;;;;;;;11.14;49.28;99975.00;5078927;28;19931;-88
2021/12/02 00:51:44;;;;;;;;;;;;;;;10.93;49.58;99972.69;5078576;28;19921;-89
2021/12/02 00:54:10;;;;;;;;;;;;;;;11.34;49.07;99971.88;5064827;28;19924;-87
2021/12/02 00:56:37;;;;;;;;;;;;;;;11.98;48.27;99978.59;5086121;28;19940;-86
2021/12/02 00:59:02;;;;;;;;;;;;;;;11.55;49.55;99985.00;5085803;28;19917;-86
2021/12/02 01:01:34;;;;;;;;;;;;;;;10.56;51.85;99988.50;5080206;28;20397;-86
2021/12/02 01:03:59;;;;;;;;;;;;;;;11.24;50.08;99986.97;5080850;28;19901;-89
2021/12/02 01:06:25;;;;;;;;;;;;;;;11.33;50.06;99991.78;5078880;28;19920;-87
2021/12/02 01:08:50;;;;;;;;;;;;;;;10.44;51.11;100002.78;5062823;28;19917;-87
2021/12/02 01:11:17;;;;;;;;;;;;;;;10.34;51.21;99993.47;5062531;28;19917;-86
2021/12/02 01:13:43;;;;;;;;;;;;;;;10.42;51.66;99997.47;5078859;28;19969;-88
2021/12/02 01:16:08;;;;;;;;;;;;;;;10.98;50.97;99996.75;5077970;28;19920;-86
2021/12/02 01:18:33;;;;;;;;;;;;;;;10.84;50.07;99997.63;5078802;28;19924;-87
2021/12/02 01:21:00;;;;;;;;;;;;;;;11.65;48.48;99986.09;5079180;28;19985;-86
2021/12/02 01:23:29;;;;;;;;;;;;;;;11.29;48.58;99990.28;5079106;28;19916;-87
2021/12/02 01:25:57;;;;;;;;;;;;;;;11.20;48.62;99998.97;5078248;28;19916;-86
2021/12/02 01:28:23;;;;;;;;;;;;;;;11.23;48.98;99990.66;5077333;28;19917;-87
2021/12/02 01:30:50;;;;;;;;;;;;;;;11.62;47.84;99986.31;5077148;28;19919;-88
2021/12/02 01:33:18;;;;;;;;;;;;;;;11.57;47.76;99988.47;5060013;28;19916;-87
2021/12/02 01:35:47;;;;;;;;;;;;;;;11.90;47.55;99989.91;5059944;28;19928;-89
2021/12/02 01:38:12;;;;;;;;;;;;;;;12.22;46.86;99992.31;5076796;28;19921;-87
2021/12/02 01:40:37;;;;;;;;;;;;;;;11.82;48.13;99997.66;5061265;28;19916;-90
2021/12/02 01:43:04;;;;;;;;;;;;;;;12.02;47.86;99996.41;5076961;28;19917;-89
2021/12/02 01:45:30;;;;;;;;;;;;;;;11.36;48.40;100001.56;5078305;28;19960;-87
2021/12/02 01:47:56;;;;;;;;;;;;;;;11.18;49.87;100009.03;5079757;28;19954;-87
2021/12/02 01:50:23;;;;;;;;;;;;;;;10.67;51.15;100024.84;5063510;28;19924;-87
2021/12/02 01:52:53;;;;;;;;;;;;;;;11.20;51.03;100004.38;5076390;28;19916;-86
2021/12/02 01:55:18;;;;;;;;;;;;;;;11.87;48.95;99990.97;5061753;28;19913;-87
2021/12/02 01:57:50;;;;;;;;;;;;;;;11.05;50.71;99997.22;5076213;28;20016;-85
2021/12/02 02:00:20;;;;;;;;;;;;;;;11.64;49.43;99994.34;5074479;28;20354;-88
2021/12/02 02:02:46;;;;;;;;;;;;;;;11.56;48.89;99996.69;5074298;28;19956;-88
2021/12/02 02:05:13;;;;;;;;;;;;;;;12.00;47.86;100003.75;5074716;28;19917;-87
2021/12/02 02:07:57;;;;;;;;;;;;;;;11.77;48.52;100016.94;5075098;28;20439;-87
2021/12/02 02:10:22;;;;;;;;;;;;;;;11.66;49.44;100006.81;5075539;28;19917;-88
2021/12/02 02:12:47;;;;;;;;;;;;;;;11.19;49.94;100010.78;5075225;28;19924;-87
2021/12/02 02:15:13;;;;;;;;;;;;;;;10.80;50.77;100023.13;5073925;28;20296;-85
2021/12/02 02:17:46;;;;;;;;;;;;;;;11.25;49.90;100020.34;5059684;28;19932;-87
2021/12/02 02:20:13;;;;;;;;;;;;;;;10.96;49.66;100025.75;5075736;28;19927;-86
2021/12/02 02:22:39;;;;;;;;;;;;;;;11.08;49.21;100027.69;5075681;28;19916;-89
2021/12/02 02:25:10;;;;;;;;;;;;;;;11.25;49.75;100025.78;5059817;28;19917;-88
2021/12/02 02:27:36;;;;;;;;;;;;;;;10.81;49.74;100022.19;5075815;28;20394;-87
2021/12/02 02:30:01;;;;;;;;;;;;;;;10.47;50.42;100021.53;5077050;28;19916;-88
2021/12/02 02:32:26;;;;;;;;;;;;;;;10.70;49.54;100019.25;5079021;28;19917;-89
2021/12/02 02:34:52;;;;;;;;;;;;;;;11.02;48.16;100019.09;5081965;28;19921;-86
2021/12/02 02:37:17;;;;;;;;;;;;;;;11.25;47.78;100007.69;5085047;28;19901;-87
2021/12/02 02:39:42;;;;;;;;;;;;;;;11.12;47.72;100012.97;5083826;28;19916;-88
2021/12/02 02:42:09;;;;;;;;;;;;;;;10.64;49.21;100010.56;5069764;28;19917;-86
2021/12/02 02:44:36;;;;;;;;;;;;;;;10.69;48.81;100007.56;5085955;28;19920;-86
2021/12/02 02:47:06;;;;;;;;;;;;;;;10.82;48.69;100013.97;5086313;28;19956;-86
2021/12/02 02:49:32;;;;;;;;;;;;;;;10.52;49.59;100030.22;5086015;28;20023;-86
2021/12/02 02:52:00;;;;;;;;;;;;;;;10.79;48.93;100014.16;5068570;28;19917;-86
2021/12/02 02:54:25;;;;;;;;;;;;;;;10.90;48.09;100018.91;5071187;28;19923;-86
2021/12/02 02:56:59;;;;;;;;;;;;;;;10.85;48.56;100044.50;5087788;28;19917;-85
2021/12/02 02:59:41;;;;;;;;;;;;;;;10.41;50.99;100051.63;5082308;28;20062;-87
2021/12/02 03:02:22;;;;;;;;;;;;;;;11.03;50.48;100037.06;5080224;28;20012;-86
2021/12/02 03:09:51;;;;;;;;;;;;;;;11.15;50.10;100047.97;5068674;28;19939;-86
2021/12/02 03:12:24;;;;;;;;;;;;;;;10.60;52.47;100056.81;5083849;28;19963;-87
2021/12/02 03:16:36;;;;;;;;;;;;;;;10.88;51.43;100047.88;5082569;28;19921;-86
2021/12/02 03:17:35;;;;;;;;;;;;;;;10.38;52.42;100054.53;5066604;28;19933;-86
2021/12/02 03:20:01;;;;;;;;;;;;;;;10.59;51.38;100058.63;5081909;28;20378;-87
2021/12/02 03:22:27;;;;;;;;;;;;;;;9.73;54.29;100058.25;5082358;28;19924;-86
2021/12/02 03:24:52;;;;;;;;;;;;;;;9.27;56.85;100072.50;5084111;28;19917;-86
2021/12/02 03:27:17;;;;;;;;;;;;;;;9.52;56.07;100054.94;5080228;28;20024;-86
2021/12/02 03:29:43;;;;;;;;;;;;;;;10.60;53.49;100032.47;5079294;28;20371;-87
2021/12/02 03:32:08;;;;;;;;;;;;;;;11.02;52.59;100028.09;5079516;28;19924;-88
2021/12/02 03:34:34;;;;;;;;;;;;;;;11.48;51.15;100016.16;5079671;28;19921;-87
2021/12/02 03:37:00;;;;;;;;;;;;;;;10.91;51.62;100012.50;5081370;28;20271;-87
2021/12/02 03:39:26;;;;;;;;;;;;;;;11.30;50.83;100013.66;5080989;28;20382;-86
2021/12/02 03:41:51;;;;;;;;;;;;;;;11.03;51.43;100031.66;5079778;28;19917;-86
2021/12/02 03:44:17;;;;;;;;;;;;;;;10.12;54.26;100046.09;5078514;28;19939;-85
2021/12/02 03:46:42;;;;;;;;;;;;;;;10.64;52.60;100037.63;5080781;28;20378;-85
2021/12/02 03:49:07;;;;;;;;;;;;;;;10.92;51.60;100033.19;5081925;28;19920;-86
2021/12/02 03:51:33;;;;;;;;;;;;;;;12.31;49.10;100026.94;5082521;28;19924;-86
2021/12/02 03:53:58;;;;;;;;;;;;;;;11.99;49.19;100043.53;5084234;28;19923;-85
2021/12/02 03:56:24;;;;;;;;;;;;;;;11.52;50.86;100039.38;5083753;28;19928;-85
2021/12/02 03:58:50;;;;;;;;;;;;;;;12.00;50.14;100038.97;5080242;28;19923;-87
2021/12/02 04:01:15;;;;;;;;;;;;;;;11.78;49.75;100043.09;5080184;28;19978;-87
2021/12/02 04:03:41;;;;;;;;;;;;;;;10.62;54.09;100055.75;5080573;28;20314;-85
2021/12/02 04:06:07;;;;;;;;;;;;;;;9.78;56.06;100039.94;5065934;28;19938;-85
2021/12/02 04:08:45;;;;;;;;;;;;;;;9.56;56.47;100034.91;5081704;28;19963;-86
2021/12/02 04:13:45;;;;;;;;;;;;;;;10.14;52.57;100033.34;5065653;28;19916;-86
2021/12/02 04:16:16;;;;;;;;;;;;;;;10.73;51.10;100029.88;5080125;28;19924;-87
2021/12/02 04:18:41;;;;;;;;;;;;;;;10.90;50.42;100032.44;5063469;28;19927;-85
2021/12/02 04:21:06;;;;;;;;;;;;;;;9.58;53.88;100052.72;5079550;28;19969;-85
2021/12/02 04:23:32;;;;;;;;;;;;;;;9.65;54.69;100068.63;5079242;28;20320;-85
2021/12/02 04:25:59;;;;;;;;;;;;;;;9.01;56.09;100074.78;5064604;28;19940;-85
2021/12/02 04:28:24;;;;;;;;;;;;;;;8.17;58.97;100055.72;5064868;28;19924;-84
2021/12/02 04:30:49;;;;;;;;;;;;;;;8.46;59.37;100064.19;5082125;28;19913;-84
2021/12/02 04:33:15;;;;;;;;;;;;;;;8.18;60.01;100061.97;5066569;28;20474;-84
2021/12/02 04:35:40;;;;;;;;;;;;;;;8.84;57.11;100054.06;5067277;28;20374;-84
2021/12/02 04:38:05;;;;;;;;;;;;;;;8.82;56.53;100045.19;5081724;28;20382;-83
2021/12/02 04:40:30;;;;;;;;;;;;;;;10.01;53.17;100035.03;5081230;28;19917;-86
2021/12/02 04:42:56;;;;;;;;;;;;;;;9.98;52.43;100037.91;5081780;28;19924;-85
2021/12/02 04:45:21;;;;;;;;;;;;;;;10.22;51.38;100041.91;5080846;28;19921;-85
2021/12/02 04:47:46;;;;;;;;;;;;;;;9.71;52.17;100042.13;5081838;28;19921;-84
2021/12/02 04:50:11;;;;;;;;;;;;;;;10.45;50.81;100047.81;5082834;28;19917;-86
2021/12/02 04:52:37;;;;;;;;;;;;;;;10.46;50.50;100046.81;5066477;28;20011;-86
2021/12/02 04:55:03;;;;;;;;;;;;;;;10.95;49.00;100046.53;5068161;28;20514;-85
2021/12/02 04:57:28;;;;;;;;;;;;;;;10.20;50.12;100043.78;5083636;28;20286;-87
2021/12/02 04:59:53;;;;;;;;;;;;;;;10.53;50.04;100039.22;5084761;28;19931;-85
2021/12/02 05:02:19;;;;;;;;;;;;;;;10.76;49.37;100035.09;5084109;28;19917;-85
2021/12/02 05:04:44;;;;;;;;;;;;;;;10.77;49.27;100036.84;5067401;28;19916;-86
2021/12/02 05:07:09;;;;;;;;;;;;;;;10.86;49.35;100041.69;5082983;28;19921;-86
2021/12/02 05:09:35;;;;;;;;;;;;;;;10.72;49.59;100039.84;5065320;28;19916;-86
2021/12/02 05:12:00;;;;;;;;;;;;;;;10.45;50.63;100045.97;5066591;28;19970;-86
2021/12/02 05:14:25;;;;;;;;;;;;;;;11.15;48.99;100037.16;5082501;28;19948;-87
2021/12/02 05:16:51;;;;;;;;;;;;;;;12.02;46.86;100043.34;5081137;28;20336;-83
2021/12/02 05:19:16;;;;;;;;;;;;;;;11.89;47.13;100048.66;5065025;28;19942;-84
2021/12/02 05:21:41;;;;;;;;;;;;;;;12.28;46.29;100045.28;5080832;28;19917;-85
2021/12/02 05:24:07;;;;;;;;;;;;;;;11.89;46.16;100050.50;5079596;28;19924;-86
2021/12/02 05:26:32;;;;;;;;;;;;;;;12.10;46.31;100060.94;5081049;28;19917;-85
2021/12/02 05:28:57;;;;;;;;;;;;;;;12.40;46.44;100060.72;5081339;28;19916;-87
2021/12/02 05:31:23;;;;;;;;;;;;;;;12.71;45.90;100056.78;5065265;28;19970;-85
2021/12/02 05:33:48;;;;;;;;;;;;;;;12.94;44.79;100046.16;5080536;28;19955;-86
2021/12/02 05:36:13;;;;;;;;;;;;;;;12.56;45.54;100060.53;5080377;28;20321;-86
2021/12/02 05:38:40;;;;;;;;;;;;;;;12.59;46.03;100073.88;5079996;28;19940;-86
2021/12/02 05:41:05;;;;;;;;;;;;;;;12.74;46.12;100072.84;5080960;28;19964;-86
2021/12/02 05:43:31;;;;;;;;;;;;;;;12.35;46.91;100082.72;5080833;28;20341;-86
2021/12/02 05:45:56;;;;;;;;;;;;;;;11.94;48.16;100072.81;5080727;28;19917;-85
2021/12/02 05:48:21;;;;;;;;;;;;;;;11.86;48.17;100072.38;5080076;28;19953;-86
2021/12/02 05:50:49;;;;;;;;;;;;;;;11.85;48.22;100082.38;5080503;28;19924;-86
2021/12/02 05:53:14;;;;;;;;;;;;;;;12.41;46.66;100071.47;5080150;28;19923;-87
2021/12/02 05:55:39;;;;;;;;;;;;;;;12.55;46.39;100072.38;5079644;28;20401;-86
2021/12/02 05:58:07;;;;;;;;;;;;;;;12.47;45.91;100063.88;5079969;28;19963;-87
2021/12/02 06:00:41;;;;;;;;;;;;;;;12.88;45.79;100068.31;5081270;28;19920;-88
2021/12/02 06:03:06;;;;;;;;;;;;;;;12.95;45.44;100080.44;5082456;28;19991;-84
2021/12/02 06:05:33;;;;;;;;;;;;;;;11.32;46.62;100094.78;5078483;28;19917;-87
2021/12/02 06:08:01;;;;;;;;;;;;;;;11.63;47.93;100104.56;5079541;28;19917;-89
2021/12/02 06:10:26;;;;;;;;;;;;;;;10.85;49.67;100110.28;5081723;28;19960;-89
2021/12/02 06:12:54;;;;;;;;;;;;;;;11.41;48.78;100115.00;5079221;28;19917;-86
2021/12/02 06:15:23;;;;;;;;;;;;;;;11.63;47.45;100109.13;5079728;28;19924;-90
2021/12/02 06:17:49;;;;;;;;;;;;;;;10.74;49.84;100110.09;5078814;28;20015;-84
2021/12/02 06:20:17;;;;;;;;;;;;;;;9.84;51.57;100107.13;5078207;28;19956;-84
2021/12/02 06:22:42;;;;;;;;;;;;;;;9.50;51.19;100103.59;5062425;28;19912;-85
2021/12/02 06:27:51;;;;;;;;;;;;;;;9.03;52.53;100104.38;5062811;28;19917;-84
2021/12/02 06:30:17;;;;;;;;;;;;;;;8.73;51.97;100091.53;5076675;28;19920;-87
2021/12/02 06:32:43;;;;;;;;;;;;;;;8.90;51.83;100090.66;5075544;28;19921;-86
2021/12/02 06:35:08;;;;;;;;;;;;;;;9.09;50.50;100095.94;5075766;28;20381;-86
2021/12/02 06:37:34;;;;;;;;;;;;;;;9.12;50.73;100101.19;5074544;28;19925;-91
2021/12/02 06:40:01;;;;;;;;;;;;;;;9.36;50.70;100104.38;5076104;28;19921;-91
2021/12/02 06:42:26;;;;;;;;;;;;;;;9.62;49.66;100111.97;5075266;28;19916;-87
2021/12/02 06:44:51;;;;;;;;;;;;;;;10.44;48.32;100111.81;5074791;28;19967;-89
2021/12/02 06:47:17;;;;;;;;;;;;;;;10.68;47.76;100108.63;5087112;28;19908;-89
2021/12/02 06:49:42;;;;;;;;;;;;;;;11.21;45.73;100108.16;5092788;28;19916;-89
2021/12/02 06:52:11;;;;;;;;;;;;;;;11.11;45.71;100111.44;5090345;28;19939;-89
2021/12/02 06:54:36;;;;;;;;;;;;;;;10.75;45.94;100120.81;5082621;28;20377;-89
2021/12/02 06:57:02;;;;;;;;;;;;;;;11.23;46.24;100126.03;5075204;28;19916;-88
2021/12/02 06:59:27;;;;;;;;;;;;;;;11.28;45.86;100131.19;5074459;28;20338;-88
2021/12/02 07:01:52;;;;;;;;;;;;;;;11.02;46.05;100124.63;5074709;28;20461;-87
2021/12/02 07:04:17;;;;;;;;;;;;;;;10.75;46.15;100123.53;5076250;28;19916;-88
2021/12/02 07:06:44;;;;;;;;;;;;;;;11.25;46.18;100125.94;5075226;28;19923;-87
2021/12/02 07:09:09;;;;;;;;;;;;;;;10.87;46.49;100129.16;5071538;28;19924;-86
2021/12/02 07:11:34;;;;;;;;;;;;;;;10.01;48.68;100135.91;5056424;28;20473;-87
2021/12/02 07:14:03;;;;;;;;;;;;;;;8.73;52.89;100137.38;5060260;28;19929;-86
2021/12/02 07:16:29;;;;;;;;;;;;;;;8.97;53.17;100154.13;5060022;28;19984;-85
2021/12/02 07:18:56;;;;;;;;;;;;;;;9.23;52.89;100150.03;5055934;28;19951;-85
2021/12/02 07:21:23;;;;;;;;;;;;;;;8.77;54.68;100146.19;5060400;28;19975;-89
2021/12/02 07:23:49;;;;;;;;;;;;;;;9.13;54.32;100135.28;5060548;28;19925;-89
2021/12/02 07:26:14;;;;;;;;;;;;;;;9.33;53.29;100144.13;5059013;28;19932;-87
2021/12/02 07:28:40;;;;;;;;;;;;;;;9.02;54.62;100135.00;5058865;28;19921;-87
2021/12/02 07:31:06;;;;;;;;;;;;;;;9.13;54.28;100135.28;5092444;28;19920;-89
2021/12/02 07:33:33;;;;;;;;;;;;;;;9.28;53.55;100140.81;5059257;28;19920;-87
2021/12/02 07:35:58;;;;;;;;;;;;;;;9.31;53.73;100137.97;5062803;28;19921;-87
2021/12/02 07:38:24;;;;;;;;;;;;;;;8.94;54.54;100148.03;5060119;28;19966;-87
2021/12/02 07:40:50;;;;;;;;;;;;;;;8.95;54.13;100161.44;5059275;28;19920;-87
2021/12/02 07:43:16;;;;;;;;;;;;;;;8.05;58.97;100199.97;5057105;28;20637;-85
2021/12/02 07:45:41;;;;;;;;;;;;;;;8.70;57.83;100191.47;5057900;28;20523;-84
2021/12/02 07:48:09;;;;;;;;;;;;;;;9.21;55.25;100200.53;5057291;28;19959;-84
2021/12/02 07:50:36;;;;;;;;;;;;;;;9.32;54.75;100186.47;5056705;28;19913;-82
2021/12/02 07:53:03;;;;;;;;;;;;;;;9.33;54.85;100198.13;5057595;28;19924;-83
2021/12/02 07:55:29;;;;;;;;;;;;;;;9.03;55.23;100218.56;5057527;28;19917;-84
2021/12/02 07:57:56;;;;;;;;;;;;;;;8.79;55.90;100215.28;5055901;28;20011;-85
2021/12/02 08:00:25;;;;;;;;;;;;;;;9.66;53.02;100206.28;5058728;28;20358;-86
2021/12/02 08:02:51;;;;;;;;;;;;;;;10.62;50.25;100196.41;5059140;28;20405;-86
2021/12/02 08:05:17;;;;;;;;;;;;;;;11.26;48.42;100190.84;5059177;28;19917;-85
2021/12/02 08:07:44;;;;;;;;;;;;;;;11.26;47.39;100198.97;5056875;28;20279;-85
2021/12/02 08:10:10;;;;;;;;;;;;;;;11.17;47.08;100202.19;5059444;28;20279;-86
2021/12/02 08:12:36;;;;;;;;;;;;;;;10.80;48.79;100220.66;5075239;28;19921;-88
2021/12/02 08:15:03;;;;;;;;;;;;;;;11.21;48.15;100221.84;5059491;28;19963;-89
2021/12/02 08:17:28;;;;;;;;;;;;;;;11.26;46.79;100223.34;5071669;28;19968;-87
2021/12/02 08:19:54;;;;;;;;;;;;;;;10.54;49.36;100227.59;5073890;28;19917;-86
2021/12/02 08:22:19;;;;;;;;;;;;;;;10.47;48.94;100235.16;5058966;28;19932;-87
2021/12/02 08:24:44;;;;;;;;;;;;;;;11.08;48.09;100240.66;5059582;28;19917;-85
2021/12/02 08:27:13;;;;;;;;;;;;;;;11.16;47.47;100246.50;5058608;28;19921;-85
2021/12/02 08:29:38;;;;;;;;;;;;;;;11.37;47.19;100243.44;5059792;28;19929;-86
2021/12/02 08:32:04;;;;;;;;;;;;;;;11.33;47.49;100245.47;5058604;28;20474;-89
2021/12/02 08:34:29;;;;;;;;;;;;;;;11.19;47.90;100257.16;5074394;28;19928;-88
2021/12/02 08:36:57;;;;;;;;;;;;;;;10.43;49.23;100252.50;5073792;28;20067;-86
2021/12/02 08:39:28;;;;;;;;;;;;;;;11.32;47.45;100255.44;5055300;28;19917;-88
2021/12/02 08:41:55;;;;;;;;;;;;;;;11.44;48.06;100261.06;5066759;28;19916;-86
2021/12/02 08:44:22;;;;;;;;;;;;;;;9.62;52.62;100279.41;5068145;28;20354;-86
2021/12/02 08:46:48;;;;;;;;;;;;;;;10.96;50.09;100282.84;5075743;28;20373;-88
2021/12/02 08:49:13;;;;;;;;;;;;;;;11.05;50.05;100285.03;5074561;28;19928;-88
2021/12/02 08:51:42;;;;;;;;;;;;;;;10.90;49.42;100286.81;5074477;28;20007;-87
2021/12/02 08:54:08;;;;;;;;;;;;;;;11.67;47.87;100289.47;5074010;28;19920;-92
2021/12/02 08:56:33;;;;;;;;;;;;;;;11.94;47.94;100284.25;5058616;28;19923;-86
2021/12/02 08:58:59;;;;;;;;;;;;;;;12.27;46.96;100284.91;5073039;28;20394;-90
2021/12/02 09:01:25;;;;;;;;;;;;;;;12.54;46.20;100293.09;5074431;28;20401;-88
2021/12/02 09:03:51;;;;;;;;;;;;;;;12.27;46.96;100290.31;5076391;28;19924;-87
2021/12/02 09:06:21;;;;;;;;;;;;;;;13.02;46.05;100285.41;5060509;28;19913;-85
2021/12/02 09:08:47;;;;;;;;;;;;;;;13.24;45.50;100289.41;5058347;28;19921;-87
2021/12/02 09:11:12;;;;;;;;;;;;;;;13.16;44.96;100289.06;5075837;28;19923;-87
2021/12/02 09:13:37;;;;;;;;;;;;;;;13.10;45.09;100291.22;5059202;28;19939;-87
2021/12/02 09:16:03;;;;;;;;;;;;;;;12.96;45.37;100296.69;5060598;28;19921;-85
2021/12/02 09:18:28;;;;;;;;;;;;;;;12.99;44.54;100298.34;5059230;28;20362;-86
2021/12/02 09:20:53;;;;;;;;;;;;;;;13.74;43.93;100290.53;5056842;28;19916;-85
2021/12/02 09:23:18;;;;;;;;;;;;;;;12.13;46.64;100293.91;5073046;28;19901;-84
2021/12/02 09:25:44;;;;;;;;;;;;;;;12.86;45.70;100303.69;5057353;28;19923;-86
2021/12/02 09:28:09;;;;;;;;;;;;;;;12.80;45.90;100304.97;5071413;28;20373;-86
2021/12/02 09:30:35;;;;;;;;;;;;;;;13.69;45.39;100308.13;5072427;28;20007;-86
2021/12/02 09:33:00;;;;;;;;;;;;;;;14.06;44.78;100313.72;5058461;28;20392;-87
2021/12/02 09:35:25;;;;;;;;;;;;;;;14.63;43.28;100321.41;5072859;28;20355;-85
2021/12/02 09:37:51;;;;;;;;;;;;;;;14.74;43.83;100327.94;5057439;28;19939;-87
2021/12/02 09:40:17;;;;;;;;;;;;;;;13.66;43.89;100341.81;5075227;28;19925;-85
2021/12/02 09:42:43;;;;;;;;;;;;;;;13.03;44.11;100355.06;5075785;28;19924;-85
2021/12/02 09:45:09;;;;;;;;;;;;;;;13.69;44.57;100347.03;5077310;28;20056;-85
2021/12/02 09:47:37;;;;;;;;;;;;;;;13.10;44.21;100356.41;5084198;28;19928;-91
2021/12/02 09:50:07;;;;;;;;;;;;;;;13.15;44.39;100352.50;5080548;28;20400;-86
2021/12/02 09:52:36;;;;;;;;;;;;;;;13.24;44.69;100347.31;5075809;28;19917;-86
2021/12/02 09:55:06;;;;;;;;;;;;;;;12.94;45.88;100336.66;5074558;28;19916;-86
2021/12/02 09:57:36;;;;;;;;;;;;;;;13.05;45.02;100328.66;5073707;28;19921;-86
2021/12/02 10:00:04;;;;;;;;;;;;;;;13.51;43.97;100332.00;5073008;28;20297;-86
2021/12/02 10:02:30;;;;;;;;;;;;;;;13.96;42.76;100330.66;5072005;28;19905;-86
2021/12/02 10:05:04;;;;;;;;;;;;;;;14.26;43.31;100343.09;5057564;28;20013;-85
2021/12/02 10:07:41;;;;;;;;;;;;;;;14.45;42.43;100380.75;5072410;28;19966;-86
2021/12/02 10:12:40;;;;;;;;;;;;;;;13.19;44.49;100392.06;5053223;28;19971;-84
2021/12/02 10:15:12;;;;;;;;;;;;;;;12.71;44.92;100409.59;5070258;28;19974;-84
2021/12/02 10:17:41;;;;;;;;;;;;;;;12.45;45.89;100411.22;5078147;28;19929;-83
2021/12/02 10:20:18;;;;;;;;;;;;;;;11.82;47.13;100415.03;5053652;28;20425;-84
2021/12/02 10:23:01;;;;;;;;;;;;;;;11.96;47.71;100423.25;5060827;28;19917;-85
2021/12/02 10:25:34;;;;;;;;;;;;;;;11.98;47.17;100426.75;5058692;28;19921;-86
2021/12/02 10:28:05;;;;;;;;;;;;;;;11.50;48.60;100426.84;5072947;28;19956;-84
2021/12/02 10:30:30;;;;;;;;;;;;;;;12.01;47.55;100433.81;5065407;28;19925;-86
2021/12/02 10:32:55;;;;;;;;;;;;;;;12.08;48.23;100426.19;5052130;28;19979;-85
2021/12/02 10:35:35;;;;;;;;;;;;;;;12.22;47.37;100428.94;5072246;28;19924;-86
2021/12/02 10:38:00;;;;;;;;;;;;;;;12.48;47.07;100432.75;5070143;28;20036;-85
2021/12/02 10:40:26;;;;;;;;;;;;;;;12.45;47.12;100443.78;5074706;28;19925;-88
2021/12/02 10:42:52;;;;;;;;;;;;;;;11.22;49.49;100465.44;5059279;28;19924;-86
2021/12/02 10:45:24;;;;;;;;;;;;;;;10.11;53.47;100477.69;5071379;28;19951;-82
2021/12/02 10:47:50;;;;;;;;;;;;;;;10.08;53.35;100474.25;5062287;28;20471;-85
2021/12/02 10:50:15;;;;;;;;;;;;;;;10.82;51.65;100473.06;5074978;28;19925;-85
2021/12/02 10:52:41;;;;;;;;;;;;;;;10.72;50.51;100491.66;5074636;28;19978;-84
2021/12/02 10:55:33;;;;;;;;;;;;;;;11.33;49.37;100487.38;5075465;28;19971;-82
2021/12/02 10:57:59;;;;;;;;;;;;;;;11.90;48.83;100485.94;5084641;28;19920;-83
2021/12/02 11:00:26;;;;;;;;;;;;;;;12.04;48.40;100487.84;5088618;28;19936;-85
2021/12/02 11:02:53;;;;;;;;;;;;;;;11.78;48.12;100478.53;5062714;28;19932;-88
2021/12/02 11:05:21;;;;;;;;;;;;;;;11.96;48.26;100469.34;5060851;28;19970;-84
2021/12/02 11:07:55;;;;;;;;;;;;;;;12.56;46.72;100459.38;5076663;28;19917;-83
2021/12/02 11:10:20;;;;;;;;;;;;;;;12.66;46.44;100451.56;5076309;28;19936;-85
2021/12/02 11:12:49;;;;;;;;;;;;;;;12.48;45.76;100442.72;5077709;28;19917;-84
2021/12/02 11:15:18;;;;;;;;;;;;;;;12.84;45.79;100436.81;5058903;28;19951;-82
2021/12/02 11:17:49;;;;;;;;;;;;;;;12.51;45.76;100445.25;5074309;28;19963;-84
2021/12/02 11:20:33;;;;;;;;;;;;;;;12.59;45.68;100448.34;5075232;28;19925;-84
2021/12/02 11:23:09;;;;;;;;;;;;;;;12.62;47.19;100437.31;5074882;28;19917;-85
2021/12/02 11:25:35;;;;;;;;;;;;;;;12.19;46.75;100434.53;5076439;28;20393;-83
2021/12/02 11:28:05;;;;;;;;;;;;;;;11.67;47.79;100428.53;5070827;28;20004;-85
2021/12/02 11:30:30;;;;;;;;;;;;;;;11.97;48.39;100437.66;5101228;28;19929;-85
2021/12/02 11:33:03;;;;;;;;;;;;;;;11.13;50.30;100441.59;5078460;28;19989;-83
2021/12/02 11:35:36;;;;;;;;;;;;;;;11.94;48.72;100441.47;5063269;28;19925;-84
2021/12/02 11:38:30;;;;;;;;;;;;;;;11.48;50.47;100447.69;5076674;28;20371;-85
2021/12/02 11:40:57;;;;;;;;;;;;;;;11.89;48.65;100438.97;5060911;28;19933;-85
2021/12/02 11:43:30;;;;;;;;;;;;;;;11.26;50.22;100445.38;5061217;28;19935;-86
2021/12/02 11:45:56;;;;;;;;;;;;;;;12.01;48.81;100448.25;5062217;28;19967;-86
2021/12/02 11:48:23;;;;;;;;;;;;;;;11.72;49.67;100446.38;5060782;28;19917;-88
2021/12/02 11:50:49;;;;;;;;;;;;;;;12.02;49.52;100452.72;5066819;28;19920;-88
2021/12/02 11:53:26;;;;;;;;;;;;;;;12.02;48.94;100460.84;5060013;28;19986;-88
2021/12/02 11:55:52;;;;;;;;;;;;;;;11.91;49.35;100452.44;5074749;28;20000;-89
2021/12/02 11:58:18;;;;;;;;;;;;;;;12.05;48.83;100455.22;5075186;28;19952;-87
2021/12/02 12:00:46;;;;;;;;;;;;;;;11.28;50.79;100469.66;5076134;28;20448;-86
2021/12/02 12:03:13;;;;;;;;;;;;;;;11.73;49.50;100467.97;5080452;28;19923;-86
2021/12/02 12:05:40;;;;;;;;;;;;;;;12.14;49.16;100482.75;5078288;28;19921;-90
2021/12/02 12:08:06;;;;;;;;;;;;;;;12.71;47.96;100488.31;5058663;28;19935;-87
2021/12/02 12:10:33;;;;;;;;;;;;;;;12.56;48.75;100495.56;5079760;28;19924;-87
2021/12/02 12:13:17;;;;;;;;;;;;;;;12.02;49.01;100504.22;5059154;28;19971;-86
2021/12/02 12:15:47;;;;;;;;;;;;;;;11.35;50.89;100501.72;5057822;28;19924;-88
2021/12/02 12:18:20;;;;;;;;;;;;;;;11.42;51.47;100506.78;5059191;28;20370;-86
2021/12/02 12:20:50;;;;;;;;;;;;;;;11.21;52.02;100506.16;5076628;28;20370;-87
2021/12/02 12:23:36;;;;;;;;;;;;;;;11.31;50.53;100512.81;5057910;28;19963;-88
2021/12/02 12:26:19;;;;;;;;;;;;;;;11.10;51.77;100512.16;5083090;28;19917;-86
2021/12/02 12:29:03;;;;;;;;;;;;;;;11.29;50.72;100515.59;5055481;28;19928;-87
2021/12/02 12:31:29;;;;;;;;;;;;;;;11.61;50.60;100529.16;5056102;28;19917;-89
2021/12/02 12:33:54;;;;;;;;;;;;;;;11.70;50.56;100533.19;5059248;28;19962;-85
2021/12/02 12:36:46;;;;;;;;;;;;;;;11.94;51.04;100532.75;5073969;28;19935;-86
2021/12/02 12:39:23;;;;;;;;;;;;;;;12.02;50.49;100546.75;5059730;28;19927;-91
2021/12/02 12:42:07;;;;;;;;;;;;;;;11.78;50.37;100546.28;5079317;28;19947;-91
2021/12/02 12:44:45;;;;;;;;;;;;;;;10.53;52.99;100535.03;5067591;28;19917;-90
2021/12/02 12:47:10;;;;;;;;;;;;;;;11.00;51.03;100506.38;5062599;28;19948;-84
2021/12/02 12:49:35;;;;;;;;;;;;;;;11.26;49.93;100517.59;5046914;28;19924;-84
2021/12/02 12:52:01;;;;;;;;;;;;;;;11.57;49.55;100518.59;5040789;28;20305;-85
2021/12/02 12:54:26;;;;;;;;;;;;;;;11.28;48.96;100521.09;5055128;28;19913;-86
2021/12/02 12:57:05;;;;;;;;;;;;;;;12.53;46.90;100520.16;5037786;28;19917;-85